createdAt,value
2022-10-09T14:20:19.935Z,4.63
2022-10-09T14:22:46.507Z,4.25
2022-10-09T14:25:13.059Z,5.15
2022-10-09T14:27:41.601Z,4.35
2022-10-09T14:30:11.077Z,4.10
2022-10-09T14:32:37.398Z,4.15
2022-10-09T14:35:03.945Z,4.47
2022-10-09T14:37:41.141Z,5.32
2022-10-09T14:40:08.979Z,4.50
2022-10-09T14:42:38.672Z,4.10
2022-10-09T14:45:06.376Z,4.55
2022-10-09T14:47:32.742Z,5.68
2022-10-09T14:49:59.060Z,4.88
2022-10-09T14:52:25.401Z,5.70
2022-10-09T14:54:51.756Z,10.77
2022-10-09T14:57:18.122Z,4.78
2022-10-09T14:59:44.514Z,5.10
2022-10-09T15:02:20.213Z,5.13
2022-10-09T15:04:46.807Z,6.53
2022-10-09T15:07:13.180Z,5.15
2022-10-09T15:09:39.550Z,5.40
2022-10-09T15:12:05.978Z,6.78
2022-10-09T15:14:32.384Z,5.88
2022-10-09T15:16:58.723Z,6.60
2022-10-09T15:19:25.138Z,6.75
2022-10-09T15:21:51.455Z,6.28
2022-10-09T15:24:17.941Z,6.20
2022-10-09T15:26:44.252Z,7.25
2022-10-09T15:29:12.009Z,6.20
2022-10-09T15:31:40.509Z,6.10
2022-10-09T15:34:08.256Z,4.88
2022-10-09T15:36:37.344Z,5.65
2022-10-09T15:39:07.123Z,6.00
2022-10-09T15:41:36.444Z,5.85
2022-10-09T15:44:07.004Z,8.55
2022-10-09T15:46:34.196Z,5.45
2022-10-09T15:49:00.590Z,6.35
2022-10-09T15:51:28.303Z,5.70
2022-10-09T15:53:56.051Z,6.28
2022-10-09T15:56:24.265Z,6.28
2022-10-09T15:58:51.745Z,7.63
2022-10-09T16:01:19.648Z,5.55
2022-10-09T16:03:46.762Z,5.32
2022-10-09T16:06:18.060Z,5.30
2022-10-09T16:08:44.677Z,5.53
2022-10-09T16:11:13.139Z,5.15
2022-10-09T16:13:40.682Z,5.35
2022-10-09T16:16:09.507Z,5.68
2022-10-09T16:18:36.458Z,5.45
2022-10-09T16:21:19.030Z,5.70
2022-10-09T16:23:45.856Z,5.70
2022-10-09T16:26:14.947Z,6.28
2022-10-09T16:28:41.482Z,6.20
2022-10-09T16:31:08.008Z,6.28
2022-10-09T16:33:34.715Z,7.80
2022-10-09T16:36:09.155Z,7.32
2022-10-09T16:41:02.685Z,7.38
2022-10-09T16:43:32.431Z,8.60
2022-10-09T16:46:09.181Z,8.70
2022-10-09T16:48:35.556Z,8.15
2022-10-09T16:51:01.881Z,6.78
2022-10-09T16:53:28.490Z,10.63
2022-10-09T16:55:54.850Z,8.02
2022-10-09T16:58:21.267Z,7.38
2022-10-09T17:00:47.628Z,7.05
2022-10-09T17:03:13.982Z,6.75
2022-10-09T17:05:40.493Z,8.40
2022-10-09T17:08:06.915Z,7.13
2022-10-09T17:10:33.288Z,11.45
2022-10-09T17:12:59.639Z,7.40
2022-10-09T17:15:25.940Z,7.20
2022-10-09T17:17:52.854Z,8.98
2022-10-09T17:20:19.485Z,6.68
2022-10-09T17:22:45.860Z,7.05
2022-10-09T17:25:13.619Z,6.50
2022-10-09T17:27:40.010Z,6.35
2022-10-09T17:30:07.135Z,7.05
2022-10-09T17:32:33.561Z,6.43
2022-10-09T17:34:59.922Z,9.82
2022-10-09T17:37:26.299Z,6.95
2022-10-09T17:39:52.724Z,7.78
2022-10-09T17:42:19.117Z,12.07
2022-10-09T17:44:45.474Z,7.10
2022-10-09T17:47:11.811Z,8.40
2022-10-09T17:49:38.293Z,8.05
2022-10-09T17:52:04.635Z,9.52
2022-10-09T17:54:31.098Z,8.43
2022-10-09T17:57:00.136Z,8.85
2022-10-09T17:59:27.095Z,7.75
2022-10-09T18:01:53.730Z,8.63
2022-10-09T18:04:20.157Z,7.28
2022-10-09T18:06:46.472Z,9.15
2022-10-09T18:09:12.822Z,7.05
2022-10-09T18:11:39.226Z,6.90
2022-10-09T18:14:05.679Z,7.65
2022-10-09T18:16:36.790Z,8.80
2022-10-09T18:19:14.513Z,10.82
2022-10-09T18:21:44.199Z,7.82
2022-10-09T18:24:11.633Z,8.65
2022-10-09T18:26:38.438Z,9.48
2022-10-09T18:29:05.097Z,6.70
2022-10-09T18:31:32.329Z,6.78
2022-10-09T18:34:00.161Z,9.23
2022-10-09T18:36:31.603Z,7.15
2022-10-09T18:39:07.179Z,6.80
2022-10-09T18:41:33.894Z,7.03
2022-10-09T18:44:00.923Z,6.75
2022-10-09T18:46:33.351Z,6.55
2022-10-09T18:49:00.055Z,6.53
2022-10-09T18:51:28.363Z,6.65
2022-10-09T18:53:59.854Z,7.03
2022-10-09T18:56:29.254Z,8.90
2022-10-09T18:58:55.655Z,6.63
2022-10-09T19:01:22.620Z,7.20
2022-10-09T19:03:50.246Z,6.93
2022-10-09T19:06:21.640Z,8.52
2022-10-09T19:08:48.089Z,7.90
2022-10-09T19:11:14.792Z,8.35
2022-10-09T19:13:42.790Z,8.02
2022-10-09T19:16:09.780Z,7.90
2022-10-09T19:18:36.925Z,8.48
2022-10-09T19:21:03.660Z,8.57
2022-10-09T19:23:30.251Z,8.25
2022-10-09T19:25:58.515Z,8.13
2022-10-09T19:28:26.958Z,9.05
2022-10-09T19:30:53.358Z,9.18
2022-10-09T19:33:19.696Z,8.90
2022-10-09T19:35:55.058Z,8.80
2022-10-09T19:38:22.969Z,9.02
2022-10-09T19:40:49.965Z,8.85
2022-10-09T19:43:17.625Z,8.70
2022-10-09T19:45:44.803Z,8.55
2022-10-09T19:48:11.272Z,8.27
2022-10-09T19:50:42.475Z,7.78
2022-10-09T19:53:09.328Z,8.73
2022-10-09T19:55:36.321Z,8.52
2022-10-09T19:58:03.589Z,7.80
2022-10-09T20:00:30.913Z,8.95
2022-10-09T20:02:57.307Z,7.93
2022-10-09T20:05:23.781Z,6.75
2022-10-09T20:07:50.293Z,9.07
2022-10-09T20:10:16.874Z,8.30
2022-10-09T20:12:43.481Z,7.93
2022-10-09T20:15:10.120Z,7.72
2022-10-09T20:17:36.565Z,8.38
2022-10-09T20:20:04.971Z,7.95
2022-10-09T20:22:31.591Z,8.38
2022-10-09T20:24:58.004Z,8.30
2022-10-09T20:27:24.527Z,9.50
2022-10-09T20:29:52.704Z,7.40
2022-10-09T20:32:19.062Z,10.10
2022-10-09T20:34:45.376Z,8.43
2022-10-09T20:37:11.920Z,7.97
2022-10-09T20:39:38.397Z,9.05
2022-10-09T20:42:04.813Z,9.20
2022-10-09T20:44:31.142Z,10.27
2022-10-09T20:46:57.526Z,10.05
2022-10-09T20:49:23.976Z,12.55
2022-10-09T20:51:51.121Z,12.25
2022-10-09T20:54:19.885Z,15.50
2022-10-09T20:56:46.661Z,12.77
2022-10-09T20:59:13.626Z,11.68
2022-10-09T21:01:40.170Z,9.38
2022-10-09T21:04:06.564Z,15.50
2022-10-09T21:06:34.064Z,10.50
2022-10-09T21:09:00.388Z,8.48
2022-10-09T21:11:26.808Z,8.27
2022-10-09T21:13:53.844Z,8.82
2022-10-09T21:16:22.786Z,8.93
2022-10-09T21:18:59.860Z,8.25
2022-10-09T21:21:28.206Z,8.82
2022-10-09T21:23:57.780Z,9.05
2022-10-09T21:26:25.540Z,11.48
2022-10-09T21:28:56.746Z,9.38
2022-10-09T21:31:28.220Z,8.82
2022-10-09T21:33:55.267Z,10.25
2022-10-09T21:36:34.289Z,9.38
2022-10-09T21:39:00.872Z,9.57
2022-10-09T21:41:27.510Z,9.35
2022-10-09T21:43:53.873Z,11.98
2022-10-09T21:46:20.303Z,10.50
2022-10-09T21:48:46.725Z,10.35
2022-10-09T21:51:13.190Z,13.00
2022-10-09T21:53:39.770Z,16.80
2022-10-09T21:56:07.168Z,13.43
2022-10-09T21:58:33.513Z,15.23
2022-10-09T22:01:01.594Z,13.43
2022-10-09T22:03:30.657Z,16.60
2022-10-09T22:05:57.155Z,15.05
2022-10-09T22:08:24.770Z,13.75
2022-10-09T22:10:51.774Z,14.43
2022-10-09T22:13:20.208Z,13.98
2022-10-09T22:15:50.929Z,13.07
2022-10-09T22:18:17.956Z,13.93
2022-10-09T22:20:49.567Z,17.30
2022-10-09T22:23:17.446Z,15.32
2022-10-09T22:25:43.852Z,15.32
2022-10-09T22:28:10.411Z,15.40
2022-10-09T22:30:36.854Z,14.73
2022-10-09T22:33:03.236Z,16.92
2022-10-09T22:35:29.817Z,16.48
2022-10-09T22:37:57.246Z,14.05
2022-10-09T22:40:23.696Z,14.93
2022-10-09T22:42:50.338Z,13.75
2022-10-09T22:45:16.991Z,14.75
2022-10-09T22:47:43.318Z,13.63
2022-10-09T22:50:09.874Z,12.93
2022-10-09T22:52:36.245Z,13.35
2022-10-09T22:55:03.379Z,14.48
2022-10-09T22:57:29.685Z,12.77
2022-10-09T22:59:56.061Z,11.50
2022-10-09T23:02:22.382Z,13.85
2022-10-09T23:04:48.726Z,13.18
2022-10-09T23:07:15.210Z,11.52
2022-10-09T23:09:41.567Z,11.82
2022-10-09T23:12:08.200Z,12.57
2022-10-09T23:14:34.712Z,12.88
2022-10-09T23:17:01.023Z,11.63
2022-10-09T23:19:27.451Z,13.02
2022-10-09T23:21:53.785Z,13.25
2022-10-09T23:24:20.193Z,12.15
2022-10-09T23:26:50.546Z,12.65
2022-10-09T23:29:18.506Z,12.23
2022-10-09T23:31:45.557Z,12.65
2022-10-09T23:34:12.932Z,12.68
2022-10-09T23:36:39.520Z,13.02
2022-10-09T23:39:06.827Z,12.18
2022-10-09T23:41:33.636Z,13.20
2022-10-09T23:43:59.983Z,14.40
2022-10-09T23:46:29.093Z,14.50
2022-10-09T23:48:56.417Z,13.52
2022-10-09T23:51:24.668Z,16.35
2022-10-09T23:53:51.572Z,15.35
2022-10-09T23:56:24.413Z,16.58
2022-10-09T23:58:51.597Z,14.68
